Time;durP1;ratioP1;P1;durP2;ratioP2;P2;SDS_P1;SDS_P2;PMS_P1;PMS_P2;Temp;Humidity;BMP_temperature;BMP_pressure;BME280_temperature;BME280_humidity;BME280_pressure;Samples;Min_cycle;Max_cycle;Signal;HPM_P1;HPM_P2
2022/10/13 00:01:10;;;;;;;;;;;;;;;;;;5012791;28;20423;-77
2022/10/13 00:03:37;;;;;;;;;;;;;;;;;;5013038;28;20388;-78
2022/10/13 00:06:07;;;;;;;;;;;;;;;;;;5012988;28;20427;-78
2022/10/13 00:08:33;;;;;;;;;;;;;;;;;;5015066;28;19972;-76
2022/10/13 00:11:00;;;;;;;;;;;;;;;;;;5015673;28;20008;-76
2022/10/13 00:13:27;;;;;;;;;;;;;;;;;;5015961;28;19929;-77
2022/10/13 00:15:53;;;;;;;;;;;;;;;;;;5018230;28;20024;-78
2022/10/13 00:18:20;;;;;;;;;;;;;;;;;;5017194;28;19976;-78
2022/10/13 00:20:47;;;;;;;;;;;;;;;;;;5017031;28;20016;-78
2022/10/13 00:23:15;;;;;;;;;;;;;;;;;;5018066;28;19957;-78
2022/10/13 00:25:42;;;;;;;;;;;;;;;;;;5017671;28;19925;-77
2022/10/13 00:28:09;;;;;;;;;;;;;;;;;;5018042;28;19937;-78
2022/10/13 00:30:36;;;;;;;;;;;;;;;;;;5013001;28;20012;-77
2022/10/13 00:33:02;;;;;;;;;;;;;;;;;;5012419;28;19932;-77
2022/10/13 00:35:28;;;;;;;;;;;;;;;;;;5012346;28;19964;-76
2022/10/13 00:37:55;;;;;;;;;;;;;;;;;;5012695;28;20016;-77
2022/10/13 00:40:23;;;;;;;;;;;;;;;;;;5013003;28;20020;-78
2022/10/13 00:42:49;;;;;;;;;;;;;;;;;;5012456;28;20016;-78
2022/10/13 00:45:21;;;;;;;;;;;;;;;;;;5012558;28;19980;-78
2022/10/13 00:47:49;;;;;;;;;;;;;;;;;;5014275;28;19926;-77
2022/10/13 00:50:17;;;;;;;;;;;;;;;;;;5014277;28;19925;-78
2022/10/13 00:52:44;;;;;;;;;;;;;;;;;;5016964;28;19963;-76
2022/10/13 00:55:11;;;;;;;;;;;;;;;;;;5015218;28;19988;-77
2022/10/13 00:57:40;;;;;;;;;;;;;;;;;;5016460;28;19926;-77
2022/10/13 01:00:08;;;;;;;;;;;;;;;;;;5016671;28;19991;-77
2022/10/13 01:02:36;;;;;;;;;;;;;;;;;;5017380;28;20020;-77
2022/10/13 01:05:03;;;;;;;;;;;;;;;;;;5018249;28;19984;-78
2022/10/13 01:07:30;;;;;;;;;;;;;;;;;;5020532;28;19936;-76
2022/10/13 01:09:59;;;;;;;;;;;;;;;;;;5018352;28;19997;-78
2022/10/13 01:12:31;;;;;;;;;;;;;;;;;;5016588;28;19984;-77
2022/10/13 01:15:04;;;;;;;;;;;;;;;;;;5015418;28;19930;-77
2022/10/13 01:17:32;;;;;;;;;;;;;;;;;;5015605;28;19926;-77
2022/10/13 01:20:22;;;;;;;;;;;;;;;;;;5015415;28;19969;-78
2022/10/13 01:22:56;;;;;;;;;;;;;;;;;;5009597;28;20377;-78
2022/10/13 01:25:29;;;;;;;;;;;;;;;;;;5017659;28;19981;-79
2022/10/13 01:28:05;;;;;;;;;;;;;;;;;;5014385;28;19968;-80
2022/10/13 01:30:33;;;;;;;;;;;;;;;;;;5018582;28;19932;-77
2022/10/13 01:33:15;;;;;;;;;;;;;;;;;;5015840;28;20288;-78
2022/10/13 01:35:45;;;;;;;;;;;;;;;;;;5023104;28;19932;-76
2022/10/13 01:38:15;;;;;;;;;;;;;;;;;;5031060;28;19925;-76
2022/10/13 01:40:43;;;;;;;;;;;;;;;;;;5019112;28;20005;-78
2022/10/13 01:43:13;;;;;;;;;;;;;;;;;;5019196;28;20012;-78
2022/10/13 01:45:45;;;;;;;;;;;;;;;;;;5019045;28;20320;-78
2022/10/13 01:48:11;;;;;;;;;;;;;;;;;;5030748;28;19925;-79
2022/10/13 01:50:38;;;;;;;;;;;;;;;;;;5029505;28;19926;-78
2022/10/13 01:53:05;;;;;;;;;;;;;;;;;;5018599;28;19925;-77
2022/10/13 01:55:31;;;;;;;;;;;;;;;;;;5015639;28;19926;-77
2022/10/13 01:57:58;;;;;;;;;;;;;;;;;;5014663;28;20414;-79
2022/10/13 02:00:24;;;;;;;;;;;;;;;;;;5014956;28;20009;-79
2022/10/13 02:02:59;;;;;;;;;;;;;;;;;;5014884;28;20295;-77
2022/10/13 02:05:30;;;;;;;;;;;;;;;;;;5014590;28;19929;-77
2022/10/13 02:08:00;;;;;;;;;;;;;;;;;;5014610;28;19953;-78
2022/10/13 02:10:28;;;;;;;;;;;;;;;;;;5014910;28;19932;-75
2022/10/13 02:12:57;;;;;;;;;;;;;;;;;;5014820;28;20020;-78
2022/10/13 02:15:27;;;;;;;;;;;;;;;;;;5014204;28;19932;-77
2022/10/13 02:17:55;;;;;;;;;;;;;;;;;;5013272;28;19926;-77
2022/10/13 02:20:21;;;;;;;;;;;;;;;;;;5014269;28;19933;-78
2022/10/13 02:22:52;;;;;;;;;;;;;;;;;;5014361;28;20384;-78
2022/10/13 02:25:18;;;;;;;;;;;;;;;;;;5014398;28;19925;-78
2022/10/13 02:27:45;;;;;;;;;;;;;;;;;;5014853;28;20012;-78
2022/10/13 02:30:19;;;;;;;;;;;;;;;;;;5016654;28;19969;-78
2022/10/13 02:32:46;;;;;;;;;;;;;;;;;;5016664;28;19926;-78
2022/10/13 02:35:14;;;;;;;;;;;;;;;;;;5015943;28;19971;-77
2022/10/13 02:37:40;;;;;;;;;;;;;;;;;;5015720;28;19930;-75
2022/10/13 02:40:07;;;;;;;;;;;;;;;;;;5014553;28;19932;-79
2022/10/13 02:42:34;;;;;;;;;;;;;;;;;;5015610;28;20012;-79
2022/10/13 02:45:00;;;;;;;;;;;;;;;;;;5014879;28;20008;-77
2022/10/13 02:47:26;;;;;;;;;;;;;;;;;;5013965;28;19926;-78
2022/10/13 02:49:53;;;;;;;;;;;;;;;;;;5013993;28;19933;-78
2022/10/13 02:52:21;;;;;;;;;;;;;;;;;;5014485;28;20008;-78
2022/10/13 02:54:49;;;;;;;;;;;;;;;;;;5014623;28;19932;-77
2022/10/13 02:57:17;;;;;;;;;;;;;;;;;;5014108;28;19925;-78
2022/10/13 02:59:43;;;;;;;;;;;;;;;;;;5014030;28;19933;-78
2022/10/13 03:02:10;;;;;;;;;;;;;;;;;;5013768;28;20012;-76
2022/10/13 03:04:36;;;;;;;;;;;;;;;;;;5013526;28;19936;-78
2022/10/13 03:07:03;;;;;;;;;;;;;;;;;;5013415;28;20627;-77
2022/10/13 03:09:31;;;;;;;;;;;;;;;;;;5013156;28;19926;-77
2022/10/13 03:11:57;;;;;;;;;;;;;;;;;;5013566;28;19981;-76
2022/10/13 03:14:23;;;;;;;;;;;;;;;;;;5013459;28;19925;-78
2022/10/13 03:16:50;;;;;;;;;;;;;;;;;;5013264;28;19972;-78
2022/10/13 03:19:16;;;;;;;;;;;;;;;;;;5013036;28;20008;-76
2022/10/13 03:21:43;;;;;;;;;;;;;;;;;;5013362;28;19991;-77
2022/10/13 03:24:09;;;;;;;;;;;;;;;;;;5013721;28;19925;-78
2022/10/13 03:26:37;;;;;;;;;;;;;;;;;;5013229;28;20030;-77
2022/10/13 03:29:04;;;;;;;;;;;;;;;;;;5012774;28;19983;-76
2022/10/13 03:31:30;;;;;;;;;;;;;;;;;;5013466;28;20012;-77
2022/10/13 03:33:57;;;;;;;;;;;;;;;;;;5013049;28;19933;-77
2022/10/13 03:36:23;;;;;;;;;;;;;;;;;;5013194;28;19925;-78
2022/10/13 03:38:50;;;;;;;;;;;;;;;;;;5012938;28;19925;-79
2022/10/13 03:41:17;;;;;;;;;;;;;;;;;;5013028;28;20361;-78
2022/10/13 03:43:45;;;;;;;;;;;;;;;;;;5013319;28;19926;-77
2022/10/13 03:46:12;;;;;;;;;;;;;;;;;;5013098;28;19983;-77
2022/10/13 03:48:39;;;;;;;;;;;;;;;;;;5017527;28;19932;-78
2022/10/13 03:51:06;;;;;;;;;;;;;;;;;;5018194;28;19965;-78
2022/10/13 03:53:32;;;;;;;;;;;;;;;;;;5032279;28;19945;-78
2022/10/13 03:55:59;;;;;;;;;;;;;;;;;;5032260;28;19973;-79
2022/10/13 03:58:27;;;;;;;;;;;;;;;;;;5015843;28;20367;-79
2022/10/13 04:00:55;;;;;;;;;;;;;;;;;;5015983;28;19932;-79
2022/10/13 04:03:22;;;;;;;;;;;;;;;;;;5015437;28;19968;-79
2022/10/13 04:05:48;;;;;;;;;;;;;;;;;;5015075;28;20004;-79
2022/10/13 04:08:15;;;;;;;;;;;;;;;;;;5014999;28;19929;-79
2022/10/13 04:10:44;;;;;;;;;;;;;;;;;;5015366;28;20351;-79
2022/10/13 04:13:11;;;;;;;;;;;;;;;;;;5014613;28;20451;-79
2022/10/13 04:15:38;;;;;;;;;;;;;;;;;;5014736;28;20379;-79
2022/10/13 04:18:06;;;;;;;;;;;;;;;;;;5014719;28;20384;-78
2022/10/13 04:20:36;;;;;;;;;;;;;;;;;;5014437;28;20020;-80
2022/10/13 04:23:02;;;;;;;;;;;;;;;;;;5014416;28;19976;-78
2022/10/13 04:25:29;;;;;;;;;;;;;;;;;;5014384;28;20008;-78
2022/10/13 04:27:55;;;;;;;;;;;;;;;;;;5014497;28;20013;-79
2022/10/13 04:30:24;;;;;;;;;;;;;;;;;;5014278;28;19932;-78
2022/10/13 04:32:51;;;;;;;;;;;;;;;;;;5014681;28;19930;-77
2022/10/13 04:35:19;;;;;;;;;;;;;;;;;;5014179;28;19964;-78
2022/10/13 04:37:45;;;;;;;;;;;;;;;;;;5014401;28;19976;-78
2022/10/13 04:40:12;;;;;;;;;;;;;;;;;;5015076;28;20036;-78
2022/10/13 04:42:38;;;;;;;;;;;;;;;;;;5017563;28;19973;-79
2022/10/13 04:45:05;;;;;;;;;;;;;;;;;;5018775;28;20020;-77
2022/10/13 04:47:32;;;;;;;;;;;;;;;;;;5018029;28;19992;-79
2022/10/13 04:49:58;;;;;;;;;;;;;;;;;;5018240;28;19961;-79
2022/10/13 04:52:26;;;;;;;;;;;;;;;;;;5019509;28;19948;-79
2022/10/13 04:54:52;;;;;;;;;;;;;;;;;;5025709;28;19929;-79
2022/10/13 04:57:19;;;;;;;;;;;;;;;;;;5028807;28;19961;-79
2022/10/13 04:59:45;;;;;;;;;;;;;;;;;;5027075;28;19932;-79
2022/10/13 05:02:12;;;;;;;;;;;;;;;;;;5027014;28;19987;-79
2022/10/13 05:04:38;;;;;;;;;;;;;;;;;;5023139;28;19961;-78
2022/10/13 05:07:05;;;;;;;;;;;;;;;;;;5018468;28;19925;-79
2022/10/13 05:09:33;;;;;;;;;;;;;;;;;;5019227;28;19976;-78
2022/10/13 05:11:59;;;;;;;;;;;;;;;;;;5017184;28;20016;-78
2022/10/13 05:14:26;;;;;;;;;;;;;;;;;;5018303;28;20360;-79
2022/10/13 05:16:52;;;;;;;;;;;;;;;;;;5017026;28;20358;-79
2022/10/13 05:19:22;;;;;;;;;;;;;;;;;;5017138;28;19980;-77
2022/10/13 05:21:48;;;;;;;;;;;;;;;;;;5016055;28;20350;-77
2022/10/13 05:24:15;;;;;;;;;;;;;;;;;;5017006;28;20008;-79
2022/10/13 05:26:44;;;;;;;;;;;;;;;;;;5016317;28;20673;-79
2022/10/13 05:29:11;;;;;;;;;;;;;;;;;;5017283;28;19925;-78
2022/10/13 05:31:37;;;;;;;;;;;;;;;;;;5016791;28;19976;-78
2022/10/13 05:34:04;;;;;;;;;;;;;;;;;;5016734;28;19925;-78
2022/10/13 05:36:31;;;;;;;;;;;;;;;;;;5016097;28;20311;-79
2022/10/13 05:38:58;;;;;;;;;;;;;;;;;;5016407;28;19929;-78
2022/10/13 05:41:25;;;;;;;;;;;;;;;;;;5016297;28;19925;-79
2022/10/13 05:43:56;;;;;;;;;;;;;;;;;;5016605;28;19984;-78
2022/10/13 05:46:22;;;;;;;;;;;;;;;;;;5016769;28;19949;-79
2022/10/13 05:48:49;;;;;;;;;;;;;;;;;;5016219;28;20524;-77
2022/10/13 05:51:16;;;;;;;;;;;;;;;;;;5015431;28;19957;-77
2022/10/13 05:53:44;;;;;;;;;;;;;;;;;;5014858;28;19930;-77
2022/10/13 05:56:13;;;;;;;;;;;;;;;;;;5014777;28;19976;-78
2022/10/13 05:58:43;;;;;;;;;;;;;;;;;;5014707;28;19929;-78
2022/10/13 06:01:12;;;;;;;;;;;;;;;;;;5014764;28;20400;-76
2022/10/13 06:03:39;;;;;;;;;;;;;;;;;;5014802;28;19932;-77
2022/10/13 06:06:06;;;;;;;;;;;;;;;;;;5014467;28;19937;-77
2022/10/13 06:08:32;;;;;;;;;;;;;;;;;;5014224;28;20008;-77
2022/10/13 06:10:58;;;;;;;;;;;;;;;;;;5014795;28;20016;-77
2022/10/13 06:13:25;;;;;;;;;;;;;;;;;;5014391;28;20325;-78
2022/10/13 06:15:51;;;;;;;;;;;;;;;;;;5014013;28;19925;-78
2022/10/13 06:18:19;;;;;;;;;;;;;;;;;;5014191;28;20396;-78
2022/10/13 06:20:46;;;;;;;;;;;;;;;;;;5015570;28;19926;-79
2022/10/13 06:23:12;;;;;;;;;;;;;;;;;;5031412;28;19925;-78
2022/10/13 06:25:46;;;;;;;;;;;;;;;;;;5030090;28;19925;-77
2022/10/13 06:28:12;;;;;;;;;;;;;;;;;;5022785;28;20396;-78
2022/10/13 06:30:39;;;;;;;;;;;;;;;;;;5016569;28;20017;-78
2022/10/13 06:33:05;;;;;;;;;;;;;;;;;;5014103;28;20004;-77
2022/10/13 06:35:33;;;;;;;;;;;;;;;;;;5014101;28;20419;-77
2022/10/13 06:37:59;;;;;;;;;;;;;;;;;;5013456;28;19965;-78
2022/10/13 06:40:26;;;;;;;;;;;;;;;;;;5014511;28;20023;-79
2022/10/13 06:42:52;;;;;;;;;;;;;;;;;;5015754;28;19988;-78
2022/10/13 06:45:19;;;;;;;;;;;;;;;;;;5016314;28;19965;-76
2022/10/13 06:47:45;;;;;;;;;;;;;;;;;;5014730;28;20431;-78
2022/10/13 06:50:12;;;;;;;;;;;;;;;;;;5014012;28;20016;-76
2022/10/13 06:52:40;;;;;;;;;;;;;;;;;;5014447;28;20356;-78
2022/10/13 06:55:07;;;;;;;;;;;;;;;;;;5013457;28;19969;-77
2022/10/13 06:57:33;;;;;;;;;;;;;;;;;;5013394;28;19925;-77
2022/10/13 06:59:59;;;;;;;;;;;;;;;;;;5014705;28;20301;-78
2022/10/13 07:02:26;;;;;;;;;;;;;;;;;;5017337;28;19926;-77
2022/10/13 07:04:52;;;;;;;;;;;;;;;;;;5016724;28;20095;-79
2022/10/13 07:07:19;;;;;;;;;;;;;;;;;;5013682;28;19989;-78
2022/10/13 07:09:47;;;;;;;;;;;;;;;;;;5017219;28;20454;-79
2022/10/13 07:12:13;;;;;;;;;;;;;;;;;;5014582;28;20315;-78
2022/10/13 07:14:40;;;;;;;;;;;;;;;;;;5012544;28;20395;-78
2022/10/13 07:17:06;;;;;;;;;;;;;;;;;;5013143;28;19979;-78
2022/10/13 07:19:33;;;;;;;;;;;;;;;;;;5017830;28;19933;-78
2022/10/13 07:21:59;;;;;;;;;;;;;;;;;;5018184;28;19929;-78
2022/10/13 07:24:26;;;;;;;;;;;;;;;;;;5013622;28;19965;-78
2022/10/13 07:26:54;;;;;;;;;;;;;;;;;;5014475;28;19925;-77
2022/10/13 07:29:20;;;;;;;;;;;;;;;;;;5011030;28;19983;-79
2022/10/13 07:31:47;;;;;;;;;;;;;;;;;;5011794;28;20044;-77
2022/10/13 07:34:14;;;;;;;;;;;;;;;;;;5011032;28;19932;-79
2022/10/13 07:36:41;;;;;;;;;;;;;;;;;;5011438;28;19926;-79
2022/10/13 07:39:07;;;;;;;;;;;;;;;;;;5011178;28;20211;-79
2022/10/13 07:41:34;;;;;;;;;;;;;;;;;;5011122;28;20033;-78
2022/10/13 07:44:02;;;;;;;;;;;;;;;;;;5011091;28;19926;-78
2022/10/13 07:46:28;;;;;;;;;;;;;;;;;;5010680;28;19932;-78
2022/10/13 07:48:55;;;;;;;;;;;;;;;;;;5011990;28;20023;-79
2022/10/13 07:51:22;;;;;;;;;;;;;;;;;;5014382;28;19973;-81
2022/10/13 07:53:49;;;;;;;;;;;;;;;;;;5012460;28;20020;-79
2022/10/13 07:56:16;;;;;;;;;;;;;;;;;;5012396;28;20016;-79
2022/10/13 07:58:42;;;;;;;;;;;;;;;;;;5011091;28;19925;-77
2022/10/13 08:01:13;;;;;;;;;;;;;;;;;;5010728;28;19929;-78
2022/10/13 08:03:40;;;;;;;;;;;;;;;;;;5010394;28;20016;-78
2022/10/13 08:06:07;;;;;;;;;;;;;;;;;;5010843;28;19952;-77
2022/10/13 08:08:34;;;;;;;;;;;;;;;;;;5010122;28;19932;-78
2022/10/13 08:11:01;;;;;;;;;;;;;;;;;;5010076;28;19984;-77
2022/10/13 08:13:27;;;;;;;;;;;;;;;;;;5009846;28;20414;-77
2022/10/13 08:15:54;;;;;;;;;;;;;;;;;;5007568;28;19925;-77
2022/10/13 08:18:21;;;;;;;;;;;;;;;;;;5014198;28;20051;-77
2022/10/13 08:20:48;;;;;;;;;;;;;;;;;;5014019;28;19933;-77
2022/10/13 08:23:14;;;;;;;;;;;;;;;;;;5013971;28;19992;-78
2022/10/13 08:25:42;;;;;;;;;;;;;;;;;;5013948;28;19988;-77
2022/10/13 08:28:15;;;;;;;;;;;;;;;;;;5013766;28;19940;-78
2022/10/13 08:30:42;;;;;;;;;;;;;;;;;;5013651;28;19925;-78
2022/10/13 08:33:08;;;;;;;;;;;;;;;;;;5014039;28;20004;-78
2022/10/13 08:35:39;;;;;;;;;;;;;;;;;;5013797;28;20373;-78
2022/10/13 08:38:06;;;;;;;;;;;;;;;;;;5013839;28;19929;-78
2022/10/13 08:40:33;;;;;;;;;;;;;;;;;;5014035;28;20376;-78
2022/10/13 08:42:59;;;;;;;;;;;;;;;;;;5013917;28;20016;-77
2022/10/13 08:45:28;;;;;;;;;;;;;;;;;;5013919;28;19934;-78
2022/10/13 08:47:56;;;;;;;;;;;;;;;;;;5013853;28;19976;-77
2022/10/13 08:50:23;;;;;;;;;;;;;;;;;;5013676;28;19926;-78
2022/10/13 08:52:53;;;;;;;;;;;;;;;;;;5013382;28;19932;-78
2022/10/13 08:55:25;;;;;;;;;;;;;;;;;;5010776;28;19933;-78
2022/10/13 08:57:51;;;;;;;;;;;;;;;;;;5013053;28;20004;-77
2022/10/13 09:00:18;;;;;;;;;;;;;;;;;;5010646;28;19976;-79
2022/10/13 09:02:45;;;;;;;;;;;;;;;;;;5014039;28;19966;-78
2022/10/13 09:05:14;;;;;;;;;;;;;;;;;;5014116;28;19933;-78
2022/10/13 09:07:40;;;;;;;;;;;;;;;;;;5013621;28;19932;-78
2022/10/13 09:10:09;;;;;;;;;;;;;;;;;;5015441;28;19976;-78
2022/10/13 09:12:36;;;;;;;;;;;;;;;;;;5014048;28;19929;-77
2022/10/13 09:15:04;;;;;;;;;;;;;;;;;;5013838;28;19925;-78
2022/10/13 09:17:31;;;;;;;;;;;;;;;;;;5013350;28;20260;-77
2022/10/13 09:20:01;;;;;;;;;;;;;;;;;;5013532;28;19969;-78
2022/10/13 09:22:28;;;;;;;;;;;;;;;;;;5033240;28;19917;-79
2022/10/13 09:25:16;;;;;;;;;;;;;;;;;;5038268;28;19925;-78
2022/10/13 09:27:43;;;;;;;;;;;;;;;;;;5028351;28;19925;-77
2022/10/13 09:30:24;;;;;;;;;;;;;;;;;;5011921;28;20356;-76
2022/10/13 09:32:51;;;;;;;;;;;;;;;;;;5011012;28;19979;-76
2022/10/13 09:35:21;;;;;;;;;;;;;;;;;;5012875;28;20009;-77
2022/10/13 09:38:01;;;;;;;;;;;;;;;;;;5012361;28;19969;-77
2022/10/13 09:40:30;;;;;;;;;;;;;;;;;;5012682;28;20004;-76
2022/10/13 09:42:57;;;;;;;;;;;;;;;;;;5012787;28;19948;-78
2022/10/13 09:45:24;;;;;;;;;;;;;;;;;;5012624;28;20032;-77
2022/10/13 09:47:52;;;;;;;;;;;;;;;;;;5011934;28;20009;-78
2022/10/13 09:50:19;;;;;;;;;;;;;;;;;;5006954;28;19957;-77
2022/10/13 09:52:47;;;;;;;;;;;;;;;;;;5013478;28;19929;-76
2022/10/13 09:55:28;;;;;;;;;;;;;;;;;;5014043;28;19956;-77
2022/10/13 09:57:56;;;;;;;;;;;;;;;;;;5014147;28;19949;-77
2022/10/13 10:00:24;;;;;;;;;;;;;;;;;;5013778;28;20000;-75
2022/10/13 10:02:53;;;;;;;;;;;;;;;;;;5012530;28;19925;-79
2022/10/13 10:05:24;;;;;;;;;;;;;;;;;;5012032;28;19972;-79
2022/10/13 10:07:51;;;;;;;;;;;;;;;;;;5012172;28;19925;-79
2022/10/13 10:10:24;;;;;;;;;;;;;;;;;;5012118;28;20454;-78
2022/10/13 10:12:51;;;;;;;;;;;;;;;;;;5010408;28;20024;-78
2022/10/13 10:15:20;;;;;;;;;;;;;;;;;;5012765;28;19926;-77
2022/10/13 10:17:50;;;;;;;;;;;;;;;;;;5023639;22;19929;-77
2022/10/13 10:20:28;;;;;;;;;;;;;;;;;;5017812;28;19926;-77
2022/10/13 10:22:59;;;;;;;;;;;;;;;;;;5011045;28;19932;-75
2022/10/13 10:25:32;;;;;;;;;;;;;;;;;;5022264;28;19933;-75
2022/10/13 10:28:25;;;;;;;;;;;;;;;;;;5019090;28;20585;-76
2022/10/13 10:30:57;;;;;;;;;;;;;;;;;;4965076;28;19992;-76
2022/10/13 10:33:30;;;;;;;;;;;;;;;;;;5031981;28;19964;-75
2022/10/13 10:35:58;;;;;;;;;;;;;;;;;;5032153;28;19951;-76
2022/10/13 10:38:31;;;;;;;;;;;;;;;;;;5031522;28;19972;-76
2022/10/13 10:41:04;;;;;;;;;;;;;;;;;;5031237;28;19925;-76
2022/10/13 10:43:41;;;;;;;;;;;;;;;;;;5021209;28;19925;-76
2022/10/13 10:46:14;;;;;;;;;;;;;;;;;;5019875;28;19972;-76
2022/10/13 10:48:43;;;;;;;;;;;;;;;;;;5018012;28;20006;-76
2022/10/13 10:51:10;;;;;;;;;;;;;;;;;;5021564;28;19991;-76
2022/10/13 10:53:38;;;;;;;;;;;;;;;;;;5021154;28;20020;-76
2022/10/13 10:56:08;;;;;;;;;;;;;;;;;;5025722;28;19929;-76
2022/10/13 10:58:37;;;;;;;;;;;;;;;;;;5029250;28;20012;-76
2022/10/13 11:01:06;;;;;;;;;;;;;;;;;;5022181;28;19988;-77
2022/10/13 11:03:41;;;;;;;;;;;;;;;;;;5021469;28;20012;-77
2022/10/13 11:06:21;;;;;;;;;;;;;;;;;;5022863;28;19925;-76
2022/10/13 11:08:49;;;;;;;;;;;;;;;;;;5014723;28;20407;-78
2022/10/13 11:11:35;;;;;;;;;;;;;;;;;;5016629;28;19980;-76
2022/10/13 11:14:15;;;;;;;;;;;;;;;;;;5018023;28;19984;-76
2022/10/13 11:16:58;;;;;;;;;;;;;;;;;;5016919;28;19969;-75
2022/10/13 11:19:30;;;;;;;;;;;;;;;;;;5017536;28;20008;-74
2022/10/13 11:22:18;;;;;;;;;;;;;;;;;;5019797;28;20458;-77
2022/10/13 11:24:51;;;;;;;;;;;;;;;;;;5015805;28;19972;-76
2022/10/13 11:27:36;;;;;;;;;;;;;;;;;;5020057;28;19960;-76
2022/10/13 11:30:03;;;;;;;;;;;;;;;;;;5020235;28;20505;-76
2022/10/13 11:32:53;;;;;;;;;;;;;;;;;;5022955;28;20030;-76
2022/10/13 11:35:23;;;;;;;;;;;;;;;;;;5021580;28;20033;-76
2022/10/13 11:37:54;;;;;;;;;;;;;;;;;;5017769;28;19976;-76
2022/10/13 11:40:24;;;;;;;;;;;;;;;;;;5027642;28;20303;-76
2022/10/13 11:43:02;;;;;;;;;;;;;;;;;;5031971;28;19932;-76
2022/10/13 11:45:37;;;;;;;;;;;;;;;;;;5011488;28;20089;-76
2022/10/13 11:48:11;;;;;;;;;;;;;;;;;;5012816;28;19969;-76
2022/10/13 11:50:41;;;;;;;;;;;;;;;;;;5010811;28;19933;-76
2022/10/13 11:53:11;;;;;;;;;;;;;;;;;;5012323;28;19925;-76
2022/10/13 11:55:43;;;;;;;;;;;;;;;;;;5012147;28;19967;-77
2022/10/13 11:58:10;;;;;;;;;;;;;;;;;;5011903;28;20524;-77
2022/10/13 12:00:36;;;;;;;;;;;;;;;;;;5011130;28;19964;-77
2022/10/13 12:03:03;;;;;;;;;;;;;;;;;;5011557;28;20169;-78
2022/10/13 12:05:31;;;;;;;;;;;;;;;;;;5017478;28;19955;-77
2022/10/13 12:08:00;;;;;;;;;;;;;;;;;;5021781;28;19925;-76
2022/10/13 12:10:30;;;;;;;;;;;;;;;;;;5019339;28;20012;-75
2022/10/13 12:12:58;;;;;;;;;;;;;;;;;;5017765;28;20610;-75
2022/10/13 12:15:32;;;;;;;;;;;;;;;;;;5012558;28;19925;-75
2022/10/13 12:17:59;;;;;;;;;;;;;;;;;;5030538;28;20406;-75
2022/10/13 12:20:26;;;;;;;;;;;;;;;;;;5023725;28;19951;-76
2022/10/13 12:22:53;;;;;;;;;;;;;;;;;;5011800;28;19969;-75
2022/10/13 12:25:23;;;;;;;;;;;;;;;;;;5011890;28;19925;-75
2022/10/13 12:27:51;;;;;;;;;;;;;;;;;;5011640;28;19925;-74
2022/10/13 12:30:21;;;;;;;;;;;;;;;;;;5011693;28;19925;-76
2022/10/13 12:32:49;;;;;;;;;;;;;;;;;;5011425;28;19925;-76
2022/10/13 12:35:17;;;;;;;;;;;;;;;;;;5011435;28;19926;-75
2022/10/13 12:37:44;;;;;;;;;;;;;;;;;;5021692;28;19991;-76
2022/10/13 12:40:13;;;;;;;;;;;;;;;;;;5019066;28;19936;-75
2022/10/13 12:42:41;;;;;;;;;;;;;;;;;;5011472;28;20017;-75
2022/10/13 12:45:14;;;;;;;;;;;;;;;;;;5011407;28;20012;-78
2022/10/13 12:47:46;;;;;;;;;;;;;;;;;;5010509;28;20447;-76
2022/10/13 12:50:33;;;;;;;;;;;;;;;;;;5010130;28;19936;-76
2022/10/13 12:53:05;;;;;;;;;;;;;;;;;;5011674;28;19981;-76
2022/10/13 12:55:31;;;;;;;;;;;;;;;;;;5020985;28;19981;-77
2022/10/13 12:57:59;;;;;;;;;;;;;;;;;;5017055;28;19925;-77
2022/10/13 13:00:27;;;;;;;;;;;;;;;;;;5018461;28;19925;-77
2022/10/13 13:02:55;;;;;;;;;;;;;;;;;;5021548;28;19929;-77
2022/10/13 13:05:32;;;;;;;;;;;;;;;;;;5023009;28;19959;-76
2022/10/13 13:07:58;;;;;;;;;;;;;;;;;;5013639;28;20027;-76
2022/10/13 13:10:25;;;;;;;;;;;;;;;;;;5019805;28;19925;-75
2022/10/13 13:12:52;;;;;;;;;;;;;;;;;;5022874;28;19926;-75
2022/10/13 13:15:30;;;;;;;;;;;;;;;;;;5023605;28;19932;-74
2022/10/13 13:18:16;;;;;;;;;;;;;;;;;;5027257;28;20418;-75
2022/10/13 13:20:43;;;;;;;;;;;;;;;;;;5021917;28;20005;-74
2022/10/13 13:23:10;;;;;;;;;;;;;;;;;;5021203;28;20016;-75
2022/10/13 13:25:36;;;;;;;;;;;;;;;;;;5018489;28;19940;-74
2022/10/13 13:28:04;;;;;;;;;;;;;;;;;;5021781;28;20024;-75
2022/10/13 13:30:32;;;;;;;;;;;;;;;;;;5023060;28;19925;-76
2022/10/13 13:32:58;;;;;;;;;;;;;;;;;;5018514;28;19972;-73
2022/10/13 13:35:25;;;;;;;;;;;;;;;;;;5022049;28;20414;-74
2022/10/13 13:37:51;;;;;;;;;;;;;;;;;;5023135;28;19940;-74
2022/10/13 13:40:18;;;;;;;;;;;;;;;;;;5021622;28;20571;-75
2022/10/13 13:42:45;;;;;;;;;;;;;;;;;;5026596;28;20008;-75
2022/10/13 13:45:12;;;;;;;;;;;;;;;;;;5025828;28;20463;-76
2022/10/13 13:47:41;;;;;;;;;;;;;;;;;;5019030;28;19965;-75
2022/10/13 13:50:13;;;;;;;;;;;;;;;;;;5012920;28;20024;-76
2022/10/13 13:52:40;;;;;;;;;;;;;;;;;;5013329;28;20440;-75
2022/10/13 13:55:07;;;;;;;;;;;;;;;;;;5012799;28;20371;-75
2022/10/13 13:57:34;;;;;;;;;;;;;;;;;;5012564;28;19983;-75
2022/10/13 14:00:00;;;;;;;;;;;;;;;;;;5012641;28;20332;-76
2022/10/13 14:02:27;;;;;;;;;;;;;;;;;;5017651;28;20015;-75
2022/10/13 14:04:54;;;;;;;;;;;;;;;;;;5026465;28;20414;-75
2022/10/13 14:07:21;;;;;;;;;;;;;;;;;;5032607;28;19964;-75
2022/10/13 14:09:47;;;;;;;;;;;;;;;;;;5020652;28;19969;-76
2022/10/13 14:12:14;;;;;;;;;;;;;;;;;;5020920;28;20400;-74
2022/10/13 14:14:40;;;;;;;;;;;;;;;;;;5022523;28;19925;-74
2022/10/13 14:17:07;;;;;;;;;;;;;;;;;;5023205;28;20015;-75
2022/10/13 14:19:34;;;;;;;;;;;;;;;;;;5018196;28;20008;-76
2022/10/13 14:22:01;;;;;;;;;;;;;;;;;;5021556;28;19925;-75
2022/10/13 14:24:28;;;;;;;;;;;;;;;;;;5021478;28;20016;-77
2022/10/13 14:26:55;;;;;;;;;;;;;;;;;;5022823;28;20012;-76
2022/10/13 14:29:21;;;;;;;;;;;;;;;;;;5021621;28;20016;-76
2022/10/13 14:31:48;;;;;;;;;;;;;;;;;;5021592;28;20012;-77
2022/10/13 14:34:14;;;;;;;;;;;;;;;;;;5021482;28;20009;-76
2022/10/13 14:36:41;;;;;;;;;;;;;;;;;;5021296;28;19929;-76
2022/10/13 14:39:09;;;;;;;;;;;;;;;;;;5032449;28;19972;-76
2022/10/13 14:41:35;;;;;;;;;;;;;;;;;;5032805;28;19940;-76
2022/10/13 14:44:02;;;;;;;;;;;;;;;;;;5033006;28;20426;-76
2022/10/13 14:46:28;;;;;;;;;;;;;;;;;;5033323;28;19925;-76
2022/10/13 14:48:55;;;;;;;;;;;;;;;;;;5031836;28;19964;-77
2022/10/13 14:51:21;;;;;;;;;;;;;;;;;;5031801;28;19925;-76
2022/10/13 14:53:48;;;;;;;;;;;;;;;;;;5031853;28;20647;-76
2022/10/13 14:56:17;;;;;;;;;;;;;;;;;;5014887;28;19929;-76
2022/10/13 14:58:43;;;;;;;;;;;;;;;;;;5018748;28;19961;-76
2022/10/13 15:01:10;;;;;;;;;;;;;;;;;;5020558;28;19936;-75
2022/10/13 15:03:36;;;;;;;;;;;;;;;;;;5020506;28;19936;-75
2022/10/13 15:06:03;;;;;;;;;;;;;;;;;;5023000;28;20442;-75
2022/10/13 15:08:29;;;;;;;;;;;;;;;;;;5031010;28;19925;-77
2022/10/13 15:10:59;;;;;;;;;;;;;;;;;;5031539;28;20008;-77
2022/10/13 15:13:27;;;;;;;;;;;;;;;;;;5033290;28;19929;-76
2022/10/13 15:15:54;;;;;;;;;;;;;;;;;;5016719;28;19925;-76
2022/10/13 15:18:20;;;;;;;;;;;;;;;;;;5011285;28;19977;-76
2022/10/13 15:20:47;;;;;;;;;;;;;;;;;;5010928;28;20009;-76
2022/10/13 15:23:14;;;;;;;;;;;;;;;;;;5011126;28;19972;-75
2022/10/13 15:25:45;;;;;;;;;;;;;;;;;;5010920;28;20396;-76
2022/10/13 15:28:11;;;;;;;;;;;;;;;;;;5011448;28;19929;-74
2022/10/13 15:30:39;;;;;;;;;;;;;;;;;;5011265;28;20016;-75
2022/10/13 15:33:06;;;;;;;;;;;;;;;;;;5011297;28;19933;-75
2022/10/13 15:35:32;;;;;;;;;;;;;;;;;;5010915;28;20457;-76
2022/10/13 15:37:59;;;;;;;;;;;;;;;;;;5009382;28;20392;-75
2022/10/13 15:40:25;;;;;;;;;;;;;;;;;;5010679;28;19984;-75
2022/10/13 15:42:52;;;;;;;;;;;;;;;;;;5009232;28;20008;-75
2022/10/13 15:45:19;;;;;;;;;;;;;;;;;;5010872;28;19930;-74
2022/10/13 15:47:46;;;;;;;;;;;;;;;;;;5010837;28;20024;-76
2022/10/13 15:50:13;;;;;;;;;;;;;;;;;;5010506;28;19948;-73
2022/10/13 15:52:40;;;;;;;;;;;;;;;;;;5011183;28;19925;-74
2022/10/13 15:55:07;;;;;;;;;;;;;;;;;;5010936;28;20362;-77
2022/10/13 15:57:33;;;;;;;;;;;;;;;;;;5010691;28;20323;-75
2022/10/13 16:00:00;;;;;;;;;;;;;;;;;;5010265;28;20423;-74
2022/10/13 16:02:26;;;;;;;;;;;;;;;;;;5015489;28;19925;-76
2022/10/13 16:04:55;;;;;;;;;;;;;;;;;;5030175;28;20535;-75
2022/10/13 16:07:22;;;;;;;;;;;;;;;;;;5030672;28;19933;-76
2022/10/13 16:09:48;;;;;;;;;;;;;;;;;;5026053;28;19930;-76
2022/10/13 16:12:14;;;;;;;;;;;;;;;;;;5009907;28;20004;-76
2022/10/13 16:14:41;;;;;;;;;;;;;;;;;;5010608;28;19976;-75
2022/10/13 16:17:07;;;;;;;;;;;;;;;;;;5009016;28;19979;-75
2022/10/13 16:19:34;;;;;;;;;;;;;;;;;;5009608;28;20016;-75
2022/10/13 16:22:02;;;;;;;;;;;;;;;;;;5010710;28;19969;-75
2022/10/13 16:24:28;;;;;;;;;;;;;;;;;;5010398;28;20285;-76
2022/10/13 16:26:55;;;;;;;;;;;;;;;;;;5010851;28;20020;-73
2022/10/13 16:29:21;;;;;;;;;;;;;;;;;;5009782;28;19980;-75
2022/10/13 16:31:48;;;;;;;;;;;;;;;;;;5010442;28;19968;-75
2022/10/13 16:34:14;;;;;;;;;;;;;;;;;;5010740;28;20020;-76
2022/10/13 16:36:41;;;;;;;;;;;;;;;;;;5010518;28;20016;-76
2022/10/13 16:39:09;;;;;;;;;;;;;;;;;;5014209;28;19931;-75
2022/10/13 16:41:36;;;;;;;;;;;;;;;;;;5013664;28;20016;-75
2022/10/13 16:44:02;;;;;;;;;;;;;;;;;;5014543;28;19925;-76
2022/10/13 16:46:29;;;;;;;;;;;;;;;;;;5013807;28;19972;-74
2022/10/13 16:48:55;;;;;;;;;;;;;;;;;;5013936;28;20357;-74
2022/10/13 16:51:23;;;;;;;;;;;;;;;;;;5013818;28;19932;-74
2022/10/13 16:53:50;;;;;;;;;;;;;;;;;;5014320;28;19989;-74